Latest Weather Observations for Loxton

IDS60801

Issued at 11:11 am CST Thursday 28 May 2020 (issued every 10 minutes, with the page automatically refreshed every 10 minutes)

About weather observations | Map of weather stations | Latest weather observations for SA | Other Formats
Station Details ID: 024024 Name: LOXTON RESEARCH CENTRE Lat: -34.44 Lon: 140.60 Height: 30.1 m
Data from the previous 72 hours. | See also: Recent months at Loxton
Date/Time
CST
Temp
°C
App
Temp
°C
Dew
Point
°C
Rel
Hum
%
Delta-T
°C
Wind Press
QNH
hPa
Press
MSL
hPa
Rain since
9am
mm
Dir  Spd
km/h
Gust
km/h
Spd
kts
Gust
kts
28/11:00am 15.9 14.5 9.5 66 3.3 NNW 7 11 4 6 1024.2 1024.2 0.0
28/10:30am 14.4 13.1 9.3 71 2.6 NW 6 9 3 5 1024.4 1024.4 0.0
28/10:00am 13.3 11.6 8.2 71 2.5 NW 7 13 4 7 1024.5 1024.5 0.0
28/09:30am 12.6 11.0 8.1 74 2.2 WNW 6 7 3 4 1024.1 1024.1 0.0
28/09:00am 10.2 9.1 6.8 79 1.6 W 2 7 1 4 1024.0 1024.0 0.0
28/08:30am 8.2 7.4 6.5 89 0.8 CALM 0 0 0 0 1023.9 1023.9 0.0
28/08:00am 6.7 5.6 5.1 89 0.7 CALM 0 0 0 0 1023.8 1023.8 0.0
28/07:30am 5.3 4.0 4.1 92 0.5 CALM 0 6 0 3 1023.3 1023.3 0.0
28/07:00am 4.3 2.9 3.3 93 0.4 CALM 0 0 0 0 1022.9 1022.9 0.0
28/06:30am 4.3 2.9 3.3 93 0.4 CALM 0 0 0 0 1022.5 1022.5 0.0
28/06:00am 3.6 2.0 2.6 93 0.4 CALM 0 0 0 0 1022.1 1022.1 0.0
28/05:30am 3.5 1.9 2.5 93 0.4 CALM 0 0 0 0 1022.0 1022.0 0.0
28/05:00am 3.2 1.6 2.4 94 0.3 CALM 0 0 0 0 1021.6 1021.6 0.0
28/04:30am 3.1 1.1 2.1 93 0.4 WSW 2 6 1 3 1021.6 1021.6 0.0
28/04:00am 3.3 1.7 2.3 93 0.4 CALM 0 0 0 0 1021.5 1021.5 0.0
28/03:30am 3.9 2.4 2.9 93 0.4 CALM 0 0 0 0 1021.5 1021.5 0.0
28/03:00am 4.4 3.0 3.4 93 0.4 CALM 0 0 0 0 1021.5 1021.5 0.0
28/02:30am 4.2 2.6 2.7 90 0.6 CALM 0 0 0 0 1021.5 1021.5 0.0
28/02:00am 4.3 2.9 3.3 93 0.4 CALM 0 0 0 0 1021.3 1021.3 0.0
28/01:30am 4.7 3.2 3.0 89 0.7 CALM 0 0 0 0 1021.2 1021.2 0.0
28/01:00am 5.0 3.6 3.8 92 0.5 CALM 0 0 0 0 1021.2 1021.2 0.0
28/12:30am 4.4 2.8 2.7 89 0.7 CALM 0 0 0 0 1021.2 1021.2 0.0
28/12:00am 4.9 3.4 3.2 89 0.7 CALM 0 0 0 0 1021.1 1021.1 0.0
 
Date/Time
CST
Temp
°C
App
Temp
°C
Dew
Point
°C
Rel
Hum
%
Delta-T
°C
Wind Press
QNH
hPa
Press
MSL
hPa
Rain since
9am
mm
Dir  Spd
km/h
Gust
km/h
Spd
kts
Gust
kts
27/11:30pm 5.1 3.7 3.7 91 0.6 CALM 0 0 0 0 1021.1 1021.1 0.0
27/11:00pm 5.3 3.9 3.6 89 0.7 CALM 0 0 0 0 1021.1 1021.1 0.0
27/10:30pm 5.2 3.7 3.0 86 0.9 CALM 0 0 0 0 1021.0 1021.0 0.0
27/10:00pm 5.8 4.5 3.9 88 0.8 CALM 0 0 0 0 1020.8 1020.8 0.0
27/09:30pm 6.0 4.7 3.9 86 0.9 CALM 0 0 0 0 1020.8 1020.8 0.0
27/09:00pm 6.1 4.7 3.7 84 1.0 CALM 0 0 0 0 1020.6 1020.6 0.0
27/08:30pm 7.0 5.7 4.0 81 1.3 CALM 0 0 0 0 1020.4 1020.4 0.0
27/08:00pm 6.8 5.5 4.0 82 1.2 CALM 0 0 0 0 1020.2 1020.2 0.0
27/07:30pm 8.1 7.0 4.9 80 1.4 CALM 0 0 0 0 1020.0 1020.0 0.0
27/07:00pm 9.0 8.0 5.5 79 1.6 CALM 0 0 0 0 1019.8 1019.8 0.0
27/06:30pm 10.5 9.7 6.7 77 1.8 CALM 0 2 0 1 1019.5 1019.5 0.0
27/06:00pm 12.5 10.3 5.1 60 3.4 WSW 6 7 3 4 1019.3 1019.3 0.0
27/05:30pm 14.5 11.8 5.6 55 4.2 WSW 9 13 5 7 1019.0 1019.0 0.0
27/05:00pm 16.2 14.6 6.3 52 4.8 NW 4 7 2 4 1018.7 1018.7 0.0
27/04:30pm 18.8 15.7 3.7 36 7.1 WNW 9 13 5 7 1018.5 1018.5 0.0
27/04:00pm 19.3 15.4 3.3 34 7.5 WNW 13 20 7 11 1018.3 1018.3 0.0
27/03:30pm 19.3 14.6 3.3 34 7.5 WNW 17 22 9 12 1018.3 1018.3 0.0
27/03:00pm 19.2 14.1 3.1 34 7.5 W 19 26 10 14 1018.2 1018.2 0.0
27/02:30pm 19.4 14.6 2.8 33 7.7 W 17 24 9 13 1018.2 1018.2 0.0
27/02:00pm 19.3 14.8 2.3 32 7.8 WNW 15 24 8 13 1018.4 1018.4 0.0
27/01:30pm 19.1 15.0 4.2 37 7.1 WNW 15 20 8 11 1018.7 1018.7 0.0
27/01:00pm 18.7 15.0 6.1 43 6.2 NW 15 22 8 12 1019.1 1019.1 0.0
27/12:30pm 17.8 14.5 6.2 46 5.7 WNW 13 17 7 9 1019.4 1019.4 0.0
27/12:00pm 16.9 13.8 5.5 47 5.5 NW 11 19 6 10 1019.9 1019.9 0.0
27/11:30am 15.3 12.0 4.8 49 4.9 NNW 11 17 6 9 1020.3 1020.3 0.0
27/11:00am 14.6 10.9 4.7 51 4.6 NNW 13 19 7 10 1020.8 1020.8 0.0
27/10:30am 13.6 10.7 4.7 55 4.1 NNW 9 15 5 8 1021.0 1021.0 0.0
27/10:00am 12.9 9.6 4.6 57 3.8 NNW 11 15 6 8 1021.2 1021.2 0.0
27/09:30am 12.2 8.9 4.5 59 3.5 NNW 11 17 6 9 1021.2 1021.2 0.0
27/09:00am 12.1 9.1 4.3 59 3.5 NNW 9 15 5 8 1021.1 1021.1 0.0
27/08:30am 11.3 8.4 4.4 62 3.1 NNW 9 15 5 8 1020.8 1020.8 0.0
27/08:00am 10.9 7.5 4.2 63 3.0 N 11 15 6 8 1020.6 1020.6 0.0
27/07:30am 9.7 7.2 4.5 70 2.3 N 7 9 4 5 1020.2 1020.2 0.0
27/07:00am 10.1 7.5 4.0 66 2.7 N 7 9 4 5 1020.0 1020.0 0.0
27/06:30am 10.2 7.1 3.8 64 2.8 NNW 9 11 5 6 1019.8 1019.8 0.0
27/06:00am 10.7 7.6 3.4 60 3.2 NNW 9 11 5 6 1019.7 1019.7 0.0
27/05:30am 11.0 7.9 3.5 60 3.3 NNW 9 11 5 6 1019.4 1019.4 0.0
27/05:00am 11.0 8.3 3.8 61 3.2 N 7 9 4 5 1019.2 1019.2 0.0
27/04:30am 11.2 8.1 3.5 59 3.4 N 9 11 5 6 1019.3 1019.3 0.0
27/04:00am 10.3 7.9 4.2 66 2.7 N 6 9 3 5 1019.3 1019.3 0.0
27/03:30am 9.8 8.7 4.9 71 2.2 CALM 0 0 0 0 1019.2 1019.2 0.0
27/03:00am 10.2 7.7 4.6 68 2.5 N 7 9 4 5 1019.4 1019.4 0.0
27/02:30am 10.5 7.9 4.2 65 2.8 N 7 9 4 5 1019.4 1019.4 0.0
27/02:00am 10.4 7.9 4.6 67 2.6 N 7 9 4 5 1019.4 1019.4 0.0
27/01:30am 11.2 8.7 4.5 63 3.0 N 7 11 4 6 1019.6 1019.6 0.0
27/01:00am 11.0 8.1 4.8 65 2.8 N 9 11 5 6 1019.8 1019.8 0.0
27/12:30am 10.6 8.2 5.1 69 2.5 NNE 7 9 4 5 1019.8 1019.8 0.0
27/12:00am 9.9 7.7 5.5 74 2.0 NNE 6 9 3 5 1020.2 1020.2 0.0
 
Date/Time
CST
Temp
°C
App
Temp
°C
Dew
Point
°C
Rel
Hum
%
Delta-T
°C
Wind Press
QNH
hPa
Press
MSL
hPa
Rain since
9am
mm
Dir  Spd
km/h
Gust
km/h
Spd
kts
Gust
kts
26/11:30pm 9.2 8.2 5.7 79 1.6 CALM 0 7 0 4 1020.3 1020.3 0.0
26/11:00pm 9.4 8.5 6.1 80 1.5 CALM 0 0 0 0 1020.6 1020.6 0.0
26/10:30pm 9.9 9.0 6.2 78 1.7 CALM 0 0 0 0 1020.6 1020.6 0.0
26/10:00pm 10.8 10.0 6.5 75 2.0 CALM 0 0 0 0 1020.6 1020.6 0.0
26/09:30pm 12.2 9.9 4.7 60 3.4 N 6 9 3 5 1020.4 1020.4 0.0
26/09:00pm 12.7 9.4 4.3 56 3.8 NNE 11 13 6 7 1019.8 1019.8 0.0
26/08:30pm 13.0 9.3 4.2 55 4.0 NE 13 17 7 9 1019.4 1019.4 0.0
26/08:00pm 12.7 10.1 4.3 56 3.8 NNE 7 11 4 6 1019.9 1019.9 0.0
26/07:30pm 13.5 10.1 4.0 52 4.3 NNE 11 15 6 8 1019.8 1019.8 0.0
26/07:00pm 14.2 10.7 3.3 48 4.9 N 11 17 6 9 1019.8 1019.8 0.0
26/06:30pm 14.1 10.6 3.7 49 4.7 NNE 11 17 6 9 1019.2 1019.2 0.0
26/06:00pm 14.4 9.8 3.6 48 4.9 NE 17 26 9 14 1018.6 1018.6 0.0
26/05:30pm 14.8 10.9 3.6 47 5.1 NE 13 20 7 11 1018.9 1018.9 0.0
26/05:00pm 15.1 11.6 3.7 46 5.2 NNE 11 15 6 8 1019.3 1019.3 0.0
26/04:30pm 15.9 12.1 3.7 44 5.6 NNE 13 17 7 9 1019.0 1019.0 0.0
26/04:00pm 16.4 11.7 3.0 40 6.1 NNE 17 24 9 13 1018.9 1018.9 0.0
26/03:30pm 17.0 13.0 2.7 38 6.5 NNE 13 17 7 9 1018.8 1018.8 0.0
26/03:00pm 17.3 12.3 1.6 34 7.0 N 17 22 9 12 1019.4 1019.4 0.0
26/02:30pm 17.3 12.5 2.5 37 6.7 NNE 17 24 9 13 1019.6 1019.6 0.0
26/02:00pm 17.1 11.8 1.9 36 6.8 N 19 26 10 14 1019.7 1019.7 0.0
26/01:30pm 16.9 12.1 2.8 39 6.4 NNE 17 26 9 14 1019.8 1019.8 0.0
26/01:00pm 16.2 11.0 3.3 42 5.9 N 20 32 11 17 1020.2 1020.2 0.0
26/12:30pm 15.8 10.7 3.3 43 5.7 N 19 26 10 14 1020.7 1020.7 0.0
26/12:00pm 15.7 10.0 3.1 43 5.7 N 22 32 12 17 1021.5 1021.5 0.0
26/11:30am 15.0 10.2 4.4 49 4.9 NNE 19 28 10 15 1022.0 1022.0 0.0
26/11:00am 12.4 8.8 5.0 60 3.4 NNE 13 20 7 11 1022.5 1022.5 0.0
26/10:30am 11.3 7.6 4.6 63 3.0 N 13 17 7 9 1023.0 1023.0 0.0
26/10:00am 10.3 6.7 5.0 69 2.4 NNE 13 19 7 10 1023.2 1023.2 0.0
26/09:30am 9.7 7.0 5.5 75 1.9 N 9 13 5 7 1023.3 1023.3 0.0
26/09:00am 8.7 6.3 5.1 78 1.6 N 7 11 4 6 1023.3 1023.3 0.0
26/08:30am 5.7 3.3 4.3 91 0.6 NNE 6 7 3 4 1023.2 1023.2 0.0
26/08:00am 4.0 2.6 3.3 95 0.3 CALM 0 0 0 0 1023.5 1023.5 0.0
26/07:30am 2.9 1.3 2.4 96 0.2 CALM 0 0 0 0 1023.2 1023.2 0.0
26/07:00am 2.3 0.6 2.0 98 0.1 CALM 0 2 0 1 1023.0 1023.0 0.0
26/06:30am 3.5 2.0 3.0 97 0.2 CALM 0 6 0 3 1022.7 1022.7 0.0
26/06:00am 3.7 1.8 3.0 95 0.3 SE 2 7 1 4 1022.7 1022.7 0.0
26/05:30am 3.8 2.3 3.1 95 0.3 CALM 0 0 0 0 1022.6 1022.6 0.0
26/05:00am 3.7 2.2 3.2 97 0.2 CALM 0 0 0 0 1022.2 1022.2 0.0
26/04:30am 4.0 2.6 3.3 95 0.3 CALM 0 0 0 0 1022.4 1022.4 0.0
26/04:00am 3.3 1.3 2.5 94 0.3 SE 2 6 1 3 1022.1 1022.1 0.0
26/03:30am 2.7 -0.3 1.7 93 0.4 SE 7 9 4 5 1022.4 1022.4 0.0
26/03:00am 2.6 0.9 2.1 96 0.2 CALM 0 0 0 0 1023.0 1023.0 0.0
26/02:30am 3.0 1.4 2.5 96 0.2 CALM 0 0 0 0 1023.1 1023.1 0.0
26/02:00am 2.5 0.0 1.7 94 0.3 SE 4 7 2 4 1023.0 1023.0 0.0
26/01:30am 3.0 1.4 2.2 94 0.3 CALM 0 0 0 0 1023.2 1023.2 0.0
26/01:00am 3.5 1.9 2.7 94 0.3 CALM 0 0 0 0 1023.4 1023.4 0.0
26/12:30am 3.7 2.2 3.0 95 0.3 CALM 0 0 0 0 1023.3 1023.3 0.0
26/12:00am 4.4 3.0 3.7 95 0.3 CALM 0 0 0 0 1023.2 1023.2 0.0
 
Date/Time
CST
Temp
°C
App
Temp
°C
Dew
Point
°C
Rel
Hum
%
Delta-T
°C
Wind Press
QNH
hPa
Press
MSL
hPa
Rain since
9am
mm
Dir  Spd
km/h
Gust
km/h
Spd
kts
Gust
kts
25/11:30pm 4.0 2.5 3.0 93 0.4 CALM 0 4 0 2 1022.6 1022.6 0.0
25/11:00pm 3.9 1.1 2.9 93 0.4 SE 7 9 4 5 1022.6 1022.6 0.0
25/10:30pm 5.1 3.1 4.4 95 0.3 SSE 4 7 2 4 1023.1 1023.1 0.0
25/10:00pm 5.1 3.8 4.2 94 0.4 CALM 0 0 0 0 1022.9 1022.9 0.0
25/09:30pm 4.9 3.5 3.4 90 0.6 CALM 0 0 0 0 1022.9 1022.9 0.0
25/09:00pm 5.1 3.7 3.7 91 0.6 CALM 0 0 0 0 1023.1 1023.1 0.0
25/08:30pm 5.5 4.3 4.6 94 0.4 CALM 0 0 0 0 1023.4 1023.4 0.0
25/08:00pm 6.0 4.9 5.1 94 0.4 CALM 0 0 0 0 1023.4 1023.4 0.0
25/07:30pm 6.5 5.4 5.1 91 0.6 CALM 0 0 0 0 1023.3 1023.3 0.0
25/07:00pm 7.1 4.6 5.0 86 0.9 SE 7 7 4 4 1023.2 1023.2 0.0
25/06:30pm 7.5 5.3 5.5 87 0.9 SE 6 7 3 4 1023.2 1023.2 0.0
25/06:00pm 8.7 6.7 6.1 84 1.2 SE 6 7 3 4 1023.4 1023.4 0.0
25/05:30pm 10.0 8.0 6.1 77 1.8 SE 6 9 3 5 1023.3 1023.3 0.0
25/05:00pm 12.6 10.4 6.0 64 3.1 SE 7 9 4 5 1023.4 1023.4 0.0
25/04:30pm 14.2 11.3 4.9 53 4.3 SE 9 13 5 7 1023.5 1023.5 0.0
25/04:00pm 14.9 12.4 4.5 49 4.8 SSE 7 11 4 6 1023.4 1023.4 0.0
25/03:30pm 15.2 13.3 5.0 50 4.8 SSE 4 13 2 7 1023.3 1023.3 0.0
25/03:00pm 15.6 13.3 4.7 48 5.1 SSW 6 9 3 5 1023.4 1023.4 0.0
25/02:30pm 15.1 11.8 4.5 49 4.9 WSW 11 17 6 9 1023.5 1023.5 0.0
25/02:00pm 15.1 12.6 4.8 50 4.8 SSE 7 11 4 6 1023.4 1023.4 0.0
25/01:30pm 15.0 12.6 4.4 49 4.9 ENE 6 11 3 6 1023.6 1023.6 0.0
25/01:00pm 14.7 12.1 4.3 49 4.8 N 7 11 4 6 1023.9 1023.9 0.0
25/12:30pm 14.6 12.0 4.4 50 4.7 N 7 15 4 8 1024.3 1024.3 0.0
25/12:00pm 14.3 11.5 5.1 54 4.3 N 9 15 5 8 1024.7 1024.7 0.0
25/11:30am 13.1 10.8 5.6 60 3.5 NW 7 11 4 6 1025.3 1025.3 0.0

Other formats

Comma delimited format used in spreadsheet applications
http://www.bom.gov.au/fwo/IDS60801/IDS60801.94682.axf

JavaScript Object Notation format (JSON) in row-major order
http://www.bom.gov.au/fwo/IDS60801/IDS60801.94682.json

Data quality

Most of these data are generated automatically and are frequently updated. Quality checks on data are not normally performed. It is possible for incorrect values to appear. Refer to information at About Latest Weather Observations and please check the disclaimer before using these data.